Time;durP1;ratioP1;P1;durP2;ratioP2;P2;SDS_P1;SDS_P2;PMS_P1;PMS_P2;Temp;Humidity;BMP_temperature;BMP_pressure;BME280_temperature;BME280_humidity;BME280_pressure;Samples;Min_cycle;Max_cycle;Signal;HPM_P1;HPM_P2
2022/09/01 00:00:48;;;;;;;4.78;1.90;;;14.20;99.90;;;;;;5032957;28;20057;-87
2022/09/01 00:03:16;;;;;;;2.95;1.52;;;14.10;99.90;;;;;;5033279;28;20045;-87
2022/09/01 00:05:45;;;;;;;4.25;1.52;;;14.10;99.90;;;;;;5033214;28;20049;-87
2022/09/01 00:08:12;;;;;;;2.75;1.40;;;14.10;99.90;;;;;;5032640;28;20495;-87
2022/09/01 00:10:38;;;;;;;2.13;1.33;;;14.10;99.90;;;;;;5032816;28;20056;-87
2022/09/01 00:13:06;;;;;;;3.42;1.42;;;14.00;99.90;;;;;;5016344;28;20461;-87
2022/09/01 00:15:33;;;;;;;2.88;1.40;;;14.00;99.90;;;;;;5032729;28;20091;-87
2022/09/01 00:17:59;;;;;;;4.90;1.15;;;14.00;99.90;;;;;;5034230;28;20053;-88
2022/09/01 00:20:24;;;;;;;5.13;1.48;;;14.00;99.90;;;;;;5016342;28;20505;-87
2022/09/01 00:22:50;;;;;;;4.85;1.55;;;14.00;99.90;;;;;;5032274;28;20049;-87
2022/09/01 00:25:18;;;;;;;1.75;1.30;;;13.90;99.90;;;;;;5016443;28;20046;-86
2022/09/01 00:27:46;;;;;;;2.58;1.30;;;13.90;99.90;;;;;;5016318;28;20049;-86
2022/09/01 00:30:12;;;;;;;3.28;1.13;;;14.00;99.90;;;;;;5032355;28;20051;-87
2022/09/01 00:32:38;;;;;;;5.07;1.70;;;13.90;99.90;;;;;;5032981;28;20084;-87
2022/09/01 00:35:04;;;;;;;2.30;1.20;;;13.90;99.90;;;;;;5032722;28;20521;-87
2022/09/01 00:37:30;;;;;;;4.45;1.42;;;13.90;99.90;;;;;;5033867;28;20406;-87
2022/09/01 00:39:56;;;;;;;4.65;1.40;;;13.80;99.90;;;;;;5032451;28;20103;-87
2022/09/01 00:42:22;;;;;;;4.13;1.38;;;13.80;99.90;;;;;;5033428;28;20041;-87
2022/09/01 00:44:48;;;;;;;3.13;1.40;;;13.80;99.90;;;;;;5032114;28;20068;-86
2022/09/01 00:47:14;;;;;;;4.47;1.60;;;13.70;99.90;;;;;;5032619;28;20067;-86
2022/09/01 00:49:48;;;;;;;3.47;1.40;;;13.70;99.90;;;;;;5032783;28;20550;-88
2022/09/01 00:52:31;;;;;;;2.67;1.60;;;13.70;99.90;;;;;;5032424;28;20064;-87
2022/09/01 00:55:19;;;;;;;2.08;1.40;;;13.60;99.90;;;;;;5033297;28;20129;-87
2022/09/01 00:57:46;;;;;;;5.93;1.40;;;13.60;99.90;;;;;;5033092;28;20041;-87
2022/09/01 01:00:17;;;;;;;2.35;1.30;;;13.60;99.90;;;;;;5033295;28;20079;-87
2022/09/01 01:02:43;;;;;;;2.58;1.50;;;13.60;99.90;;;;;;5015854;28;20113;-86
2022/09/01 01:05:10;;;;;;;3.83;1.73;;;13.50;99.90;;;;;;5033139;28;20045;-87
2022/09/01 01:07:38;;;;;;;3.85;1.25;;;13.40;99.90;;;;;;5033113;28;20058;-87
2022/09/01 01:10:06;;;;;;;3.30;1.35;;;13.50;99.90;;;;;;5033045;28;20068;-86
2022/09/01 01:12:32;;;;;;;3.45;1.77;;;13.50;99.90;;;;;;5033276;28;20046;-87
2022/09/01 01:14:58;;;;;;;4.10;1.63;;;13.50;99.90;;;;;;5015981;28;20092;-87
2022/09/01 01:17:24;;;;;;;4.63;1.67;;;13.50;99.90;;;;;;5031985;28;20053;-87
2022/09/01 01:23:07;;;;;;;4.75;2.17;;;13.50;99.90;;;;;;5031764;28;20471;-86
2022/09/01 01:25:55;;;;;;;2.67;1.35;;;13.40;99.90;;;;;;5034456;28;20502;-86
2022/09/01 01:28:29;;;;;;;3.83;1.42;;;13.40;99.90;;;;;;5037080;28;20084;-87
2022/09/01 01:31:13;;;;;;;3.33;1.15;;;13.30;99.90;;;;;;5036902;28;20112;-86
2022/09/01 01:33:58;;;;;;;2.45;1.40;;;13.30;99.90;;;;;;5037127;28;20045;-87
2022/09/01 01:36:35;;;;;;;3.72;1.70;;;13.30;99.90;;;;;;5003196;28;20402;-86
2022/09/01 01:39:08;;;;;;;3.08;1.30;;;13.20;99.90;;;;;;5019520;28;20486;-86
2022/09/01 01:41:36;;;;;;;2.00;1.30;;;13.20;99.90;;;;;;5037103;28;20437;-87
2022/09/01 01:44:04;;;;;;;2.03;1.30;;;13.20;99.90;;;;;;5036774;28;20050;-86
2022/09/01 01:46:32;;;;;;;2.42;1.33;;;13.10;99.90;;;;;;5036885;28;20072;-86
2022/09/01 01:49:01;;;;;;;3.17;1.52;;;13.10;99.90;;;;;;5036631;28;20474;-86
2022/09/01 01:51:30;;;;;;;4.43;1.50;;;13.00;99.90;;;;;;5036416;28;20495;-86
2022/09/01 01:53:58;;;;;;;4.13;1.50;;;13.00;99.90;;;;;;5018799;28;20060;-87
2022/09/01 01:56:24;;;;;;;2.47;1.45;;;13.00;99.90;;;;;;5019057;28;20049;-87
2022/09/01 01:58:55;;;;;;;2.78;1.50;;;12.90;99.90;;;;;;5036483;28;20049;-86
2022/09/01 02:01:27;;;;;;;6.88;1.42;;;12.90;99.90;;;;;;5035209;28;20037;-87
2022/09/01 02:03:55;;;;;;;2.08;1.30;;;12.90;99.90;;;;;;5035270;28;20068;-87
2022/09/01 02:06:23;;;;;;;1.58;1.33;;;12.80;99.90;;;;;;5018544;28;20045;-87
2022/09/01 02:08:57;;;;;;;5.38;1.52;;;12.70;99.90;;;;;;5034851;28;20049;-87
2022/09/01 02:11:26;;;;;;;4.05;1.48;;;12.80;99.90;;;;;;5036365;28;20164;-86
2022/09/01 02:13:55;;;;;;;2.78;1.58;;;12.70;99.90;;;;;;5035213;28;20053;-86
2022/09/01 02:16:22;;;;;;;1.38;1.10;;;12.70;99.90;;;;;;5036101;28;20053;-87
2022/09/01 02:18:50;;;;;;;3.85;1.52;;;12.70;99.90;;;;;;5035064;28;20422;-87
2022/09/01 02:21:19;;;;;;;2.67;1.50;;;12.70;99.90;;;;;;5034852;28;20053;-86
2022/09/01 02:23:59;;;;;;;3.25;1.30;;;12.60;99.90;;;;;;5035803;28;20050;-86
2022/09/01 02:26:31;;;;;;;2.30;1.70;;;12.60;99.90;;;;;;5018789;28;20045;-87
2022/09/01 02:29:03;;;;;;;3.28;1.60;;;12.60;99.90;;;;;;5035686;28;20044;-86
2022/09/01 02:31:30;;;;;;;2.08;1.48;;;12.60;99.90;;;;;;5036159;28;20038;-86
2022/09/01 02:33:57;;;;;;;2.00;1.45;;;12.50;99.90;;;;;;5035913;28;20042;-86
2022/09/01 02:36:24;;;;;;;5.13;2.00;;;12.50;99.90;;;;;;5035537;28;20049;-87
2022/09/01 02:38:50;;;;;;;2.33;1.40;;;12.50;99.90;;;;;;5018469;28;20045;-86
2022/09/01 02:41:20;;;;;;;5.43;1.90;;;12.50;99.90;;;;;;5017817;28;20486;-87
2022/09/01 02:43:46;;;;;;;2.90;1.30;;;12.40;99.90;;;;;;5034591;28;20050;-86
2022/09/01 02:46:13;;;;;;;2.28;1.70;;;12.40;99.90;;;;;;5034606;28;20472;-86
2022/09/01 02:48:42;;;;;;;3.25;1.80;;;12.40;99.90;;;;;;5035683;28;20049;-86
2022/09/01 02:51:10;;;;;;;2.63;1.40;;;12.40;99.90;;;;;;5034362;28;20048;-86
2022/09/01 02:53:38;;;;;;;3.90;1.83;;;12.30;99.90;;;;;;5034068;28;20045;-86
2022/09/01 02:56:08;;;;;;;2.75;1.35;;;12.30;99.90;;;;;;5035317;28;20466;-87
2022/09/01 02:58:39;;;;;;;3.33;2.03;;;12.20;99.90;;;;;;5034667;28;20053;-87
2022/09/01 03:01:24;;;;;;;3.10;1.65;;;12.20;99.90;;;;;;5034208;28;20041;-86
2022/09/01 03:03:56;;;;;;;4.93;2.20;;;12.10;99.90;;;;;;5034762;28;20131;-86
2022/09/01 03:06:23;;;;;;;4.30;1.67;;;12.10;99.90;;;;;;5035138;28;20049;-86
2022/09/01 03:08:53;;;;;;;3.55;1.83;;;12.10;99.90;;;;;;5035091;28;20053;-86
2022/09/01 03:11:20;;;;;;;2.53;1.50;;;12.10;99.90;;;;;;5035383;28;20045;-86
2022/09/01 03:13:46;;;;;;;2.67;1.65;;;12.00;99.90;;;;;;5034052;28;20071;-86
2022/09/01 03:16:12;;;;;;;4.15;1.70;;;12.00;99.90;;;;;;5033852;28;20045;-87
2022/09/01 03:18:38;;;;;;;3.78;1.80;;;12.00;99.90;;;;;;5033859;28;20518;-86
2022/09/01 03:21:05;;;;;;;4.03;1.77;;;12.00;99.90;;;;;;5016982;28;20095;-86
2022/09/01 03:23:32;;;;;;;2.38;2.10;;;11.90;99.90;;;;;;5033678;28;20049;-86
2022/09/01 03:25:58;;;;;;;5.05;1.90;;;12.00;99.90;;;;;;5033829;28;20057;-86
2022/09/01 03:28:24;;;;;;;2.90;1.80;;;12.00;99.90;;;;;;5035026;28;20049;-86
2022/09/01 03:30:53;;;;;;;6.25;2.00;;;11.90;99.90;;;;;;5034753;28;20045;-85
2022/09/01 03:33:20;;;;;;;3.35;1.80;;;11.80;99.90;;;;;;5034639;28;20041;-86
2022/09/01 03:35:47;;;;;;;2.95;2.00;;;11.80;99.90;;;;;;5017031;28;20045;-86
2022/09/01 03:38:19;;;;;;;4.03;2.00;;;11.80;99.90;;;;;;5034774;28;20461;-86
2022/09/01 03:40:46;;;;;;;4.90;1.90;;;11.80;99.90;;;;;;5016889;28;20049;-86
2022/09/01 03:43:12;;;;;;;4.45;1.70;;;11.70;99.90;;;;;;5033707;28;20380;-86
2022/09/01 03:45:39;;;;;;;3.30;1.67;;;11.70;99.90;;;;;;5033696;28;20076;-86
2022/09/01 03:48:07;;;;;;;4.82;1.70;;;11.70;99.90;;;;;;5032750;28;20041;-86
2022/09/01 03:50:39;;;;;;;3.92;1.80;;;11.60;99.90;;;;;;5034526;28;20045;-86
2022/09/01 03:53:06;;;;;;;3.90;1.73;;;11.60;99.90;;;;;;5032816;28;20187;-86
2022/09/01 03:55:36;;;;;;;3.35;1.58;;;11.60;99.90;;;;;;5033470;28;20054;-86
2022/09/01 03:58:08;;;;;;;4.18;1.95;;;11.60;99.90;;;;;;5017589;28;20045;-87
2022/09/01 04:00:38;;;;;;;3.55;1.73;;;11.60;99.90;;;;;;5034019;28;20045;-86
2022/09/01 04:03:07;;;;;;;2.50;1.83;;;11.60;99.90;;;;;;5034497;28;20115;-86
2022/09/01 04:05:34;;;;;;;3.30;1.80;;;11.70;99.90;;;;;;5034407;28;20080;-86
2022/09/01 04:08:06;;;;;;;2.85;2.10;;;11.70;99.90;;;;;;5034161;28;20057;-86
2022/09/01 04:10:34;;;;;;;3.10;2.00;;;11.70;99.90;;;;;;5032850;28;20096;-86
2022/09/01 04:13:01;;;;;;;2.75;1.92;;;11.60;99.90;;;;;;5032785;28;20474;-86
2022/09/01 04:15:28;;;;;;;2.63;2.20;;;11.60;99.90;;;;;;5034111;28;20080;-86
2022/09/01 04:18:09;;;;;;;3.75;1.83;;;11.60;99.90;;;;;;5034122;28;20475;-86
2022/09/01 04:20:49;;;;;;;4.03;2.03;;;11.60;99.90;;;;;;5032921;28;20099;-86
2022/09/01 04:23:22;;;;;;;2.20;1.83;;;11.60;99.90;;;;;;5016004;28;20056;-86
2022/09/01 04:25:52;;;;;;;6.35;1.80;;;11.60;99.90;;;;;;5032658;28;20059;-87
2022/09/01 04:28:23;;;;;;;3.08;1.90;;;11.60;99.90;;;;;;5034343;28;20056;-85
2022/09/01 04:30:57;;;;;;;3.28;1.77;;;11.60;99.90;;;;;;5016413;28;20053;-86
2022/09/01 04:33:35;;;;;;;3.67;1.90;;;11.50;99.90;;;;;;5033562;28;20140;-86
2022/09/01 04:36:02;;;;;;;2.75;1.33;;;11.50;99.90;;;;;;5033411;28;20053;-86
2022/09/01 04:38:29;;;;;;;3.75;1.77;;;11.50;99.90;;;;;;5031886;28;20045;-86
2022/09/01 04:40:56;;;;;;;4.00;1.80;;;11.50;99.90;;;;;;5033047;28;20037;-86
2022/09/01 04:43:24;;;;;;;7.45;2.20;;;11.60;99.90;;;;;;5016168;28;20068;-86
2022/09/01 04:45:53;;;;;;;3.00;1.58;;;11.60;99.90;;;;;;5033400;28;20124;-86
2022/09/01 04:48:21;;;;;;;4.13;2.60;;;11.40;99.90;;;;;;5032688;28;20180;-86
2022/09/01 04:50:48;;;;;;;3.22;2.33;;;11.40;99.90;;;;;;5032227;28;20060;-86
2022/09/01 04:53:14;;;;;;;4.05;1.73;;;11.40;99.90;;;;;;5033145;28;20570;-86
2022/09/01 04:55:43;;;;;;;3.67;2.10;;;11.40;99.90;;;;;;5032479;28;20050;-86
2022/09/01 04:58:12;;;;;;;2.58;1.90;;;11.40;99.90;;;;;;5033222;28;20049;-86
2022/09/01 05:00:39;;;;;;;3.00;2.00;;;11.50;99.90;;;;;;5032304;28;20125;-86
2022/09/01 05:03:05;;;;;;;4.32;2.17;;;11.40;99.90;;;;;;5033272;28;20521;-86
2022/09/01 05:05:43;;;;;;;3.08;1.70;;;11.40;99.90;;;;;;5011531;28;20136;-86
2022/09/01 05:08:16;;;;;;;3.20;2.22;;;11.50;99.90;;;;;;5015372;28;20525;-86
2022/09/01 05:10:54;;;;;;;7.97;1.60;;;11.40;99.90;;;;;;4999727;28;20045;-86
2022/09/01 05:13:21;;;;;;;2.78;1.90;;;11.40;99.90;;;;;;4999445;28;20418;-86
2022/09/01 05:15:58;;;;;;;3.78;1.90;;;11.40;99.90;;;;;;5033197;28;20447;-88
2022/09/01 05:18:24;;;;;;;5.88;1.70;;;11.40;99.90;;;;;;5033306;28;20114;-86
2022/09/01 05:20:51;;;;;;;3.67;2.28;;;11.40;99.90;;;;;;5015533;28;20494;-86
2022/09/01 05:23:18;;;;;;;3.38;1.90;;;11.60;99.90;;;;;;5015269;28;20050;-86
2022/09/01 05:25:48;;;;;;;3.92;1.95;;;11.50;99.90;;;;;;5015987;28;20061;-87
2022/09/01 05:28:18;;;;;;;4.25;1.65;;;11.60;99.90;;;;;;5032940;28;20072;-87
2022/09/01 05:30:46;;;;;;;10.48;2.47;;;11.60;99.90;;;;;;5015739;28;20132;-87
2022/09/01 05:33:15;;;;;;;4.85;1.63;;;11.60;99.90;;;;;;4999608;28;20053;-87
2022/09/01 05:35:54;;;;;;;4.60;2.00;;;11.60;99.90;;;;;;5015776;28;20068;-86
2022/09/01 05:38:20;;;;;;;6.43;2.22;;;11.70;99.90;;;;;;5015749;28;20049;-87
2022/09/01 05:41:02;;;;;;;4.60;1.95;;;11.90;99.90;;;;;;5031616;28;20479;-87
2022/09/01 05:43:29;;;;;;;3.40;1.75;;;11.90;99.90;;;;;;5015661;28;20049;-87
2022/09/01 05:45:59;;;;;;;3.65;2.10;;;11.90;99.90;;;;;;4999132;28;20076;-86
2022/09/01 05:48:27;;;;;;;3.55;2.00;;;12.00;99.90;;;;;;5032942;28;20053;-86
2022/09/01 05:50:58;;;;;;;4.28;1.60;;;12.10;99.90;;;;;;4999551;28;20479;-87
2022/09/01 05:53:27;;;;;;;2.88;1.55;;;12.10;99.90;;;;;;5014834;28;20059;-87
2022/09/01 05:55:55;;;;;;;3.08;2.00;;;12.20;99.90;;;;;;5015469;28;20054;-86
2022/09/01 05:58:24;;;;;;;8.10;1.70;;;12.30;99.90;;;;;;5032865;28;20486;-86
2022/09/01 06:00:52;;;;;;;2.78;1.27;;;12.40;99.90;;;;;;4998971;28;20045;-86
2022/09/01 06:03:23;;;;;;;1.52;1.10;;;12.40;99.90;;;;;;5032939;28;20136;-88
2022/09/01 06:05:51;;;;;;;4.40;2.35;;;12.50;99.90;;;;;;4998910;28;20053;-86
2022/09/01 06:08:20;;;;;;;3.28;1.75;;;12.60;99.90;;;;;;4999397;28;20057;-86
2022/09/01 06:10:49;;;;;;;10.80;2.65;;;12.70;99.90;;;;;;5034790;28;20471;-86
2022/09/01 06:13:16;;;;;;;5.32;2.22;;;12.80;99.90;;;;;;5036718;28;20049;-86
2022/09/01 06:15:43;;;;;;;3.70;2.33;;;12.90;99.90;;;;;;5019184;28;20054;-86
2022/09/01 06:18:13;;;;;;;3.70;1.90;;;13.00;99.90;;;;;;5019935;28;20057;-88
2022/09/01 06:20:44;;;;;;;4.67;1.93;;;13.10;99.90;;;;;;5005265;28;20053;-88
2022/09/01 06:23:13;;;;;;;9.13;2.20;;;13.20;99.90;;;;;;5036990;28;20284;-87
2022/09/01 06:25:42;;;;;;;3.47;2.00;;;13.30;99.90;;;;;;5003085;28;20057;-88
2022/09/01 06:28:10;;;;;;;6.60;2.08;;;13.40;99.90;;;;;;4986743;28;20112;-86
2022/09/01 06:30:37;;;;;;;5.43;2.00;;;13.50;99.90;;;;;;5019074;28;20045;-89
2022/09/01 06:33:08;;;;;;;4.53;1.83;;;13.50;99.90;;;;;;5002471;28;20079;-90
2022/09/01 06:35:41;;;;;;;2.65;2.00;;;13.60;99.90;;;;;;4988691;28;20533;-87
2022/09/01 06:38:08;;;;;;;2.63;1.90;;;13.70;99.90;;;;;;5036501;28;20049;-88
2022/09/01 06:40:34;;;;;;;6.25;1.85;;;13.80;99.90;;;;;;5036353;28;20049;-89
2022/09/01 06:43:06;;;;;;;5.93;1.80;;;13.90;99.90;;;;;;5035930;28;20124;-88
2022/09/01 06:45:34;;;;;;;3.95;2.00;;;14.00;99.90;;;;;;5035882;28;20132;-88
2022/09/01 06:48:00;;;;;;;4.65;2.00;;;14.10;99.90;;;;;;5018210;28;20485;-89
2022/09/01 06:50:28;;;;;;;4.32;1.80;;;14.20;99.90;;;;;;4986595;28;20045;-89
2022/09/01 06:53:09;;;;;;;6.68;2.50;;;14.30;99.90;;;;;;5018028;28;20045;-86
2022/09/01 06:55:36;;;;;;;3.97;1.93;;;14.40;99.90;;;;;;5003936;28;20103;-88
2022/09/01 06:58:06;;;;;;;10.75;2.13;;;14.50;99.90;;;;;;5018008;28;20090;-92
2022/09/01 07:00:40;;;;;;;7.18;1.85;;;14.60;99.90;;;;;;5035549;28;20061;-87
2022/09/01 07:03:12;;;;;;;9.02;2.10;;;14.70;99.90;;;;;;5021050;28;20045;-87
2022/09/01 07:05:44;;;;;;;5.88;2.20;;;14.80;99.90;;;;;;5018350;28;20049;-87
2022/09/01 07:08:16;;;;;;;8.88;2.30;;;14.90;99.90;;;;;;4993288;28;20404;-89
2022/09/01 07:10:45;;;;;;;8.10;2.10;;;15.00;99.90;;;;;;4998654;28;20049;-88
2022/09/01 07:13:22;;;;;;;5.93;1.77;;;15.10;99.90;;;;;;4982202;28;20095;-90
2022/09/01 07:15:53;;;;;;;4.00;1.80;;;15.20;99.90;;;;;;4999810;28;20058;-87
2022/09/01 07:18:25;;;;;;;4.80;2.00;;;15.30;99.90;;;;;;4998869;28;20603;-88
2022/09/01 07:20:51;;;;;;;;;;;15.40;99.90;;;;;;5015776;28;20046;-87
2022/09/01 07:23:19;;;;;;;3.35;1.70;;;15.50;99.90;;;;;;4980258;28;19929;-88
2022/09/01 07:25:47;;;;;;;2.60;1.15;;;15.70;99.90;;;;;;5015902;28;20053;-89
2022/09/01 07:28:15;;;;;;;3.63;2.08;;;15.80;99.90;;;;;;5015321;28;20128;-89
2022/09/01 07:30:51;;;;;;;5.78;1.63;;;15.80;99.90;;;;;;4998023;28;20065;-87
2022/09/01 07:33:23;;;;;;;4.20;2.00;;;15.90;99.90;;;;;;4981702;28;20081;-86
2022/09/01 07:35:54;;;;;;;5.75;1.67;;;16.00;99.90;;;;;;4997932;28;20052;-90
2022/09/01 07:38:21;;;;;;;9.43;1.80;;;16.20;99.90;;;;;;5015654;28;20135;-87
2022/09/01 07:40:47;;;;;;;8.23;2.00;;;16.30;99.90;;;;;;4998612;28;20060;-86
2022/09/01 07:43:23;;;;;;;6.10;1.52;;;16.50;99.90;;;;;;4997846;28;20089;-88
2022/09/01 07:45:56;;;;;;;2.30;1.23;;;16.60;99.90;;;;;;5017198;28;20045;-87
2022/09/01 07:48:24;;;;;;;6.60;1.40;;;16.70;99.90;;;;;;4998759;28;20061;-88
2022/09/01 07:50:52;;;;;;;3.60;1.60;;;16.80;99.90;;;;;;4982968;28;20100;-87
2022/09/01 07:53:21;;;;;;;3.63;1.65;;;16.90;99.90;;;;;;4997994;28;20056;-87
2022/09/01 07:55:50;;;;;;;4.65;1.75;;;17.00;99.90;;;;;;5019362;28;20046;-88
2022/09/01 07:58:19;;;;;;;3.00;1.48;;;17.20;99.90;;;;;;4983955;28;20046;-89
2022/09/01 08:00:46;;;;;;;2.63;1.30;;;17.30;99.90;;;;;;5016127;28;20045;-87
2022/09/01 08:03:13;;;;;;;5.70;1.35;;;17.40;99.90;;;;;;4984779;28;20109;-86
2022/09/01 08:05:39;;;;;;;6.18;1.80;;;17.50;99.90;;;;;;5016633;28;20565;-87
2022/09/01 08:08:06;;;;;;;10.57;1.70;;;17.70;99.90;;;;;;4970824;28;20439;-89
2022/09/01 08:10:31;;;;;;;4.00;1.58;;;17.80;99.90;;;;;;5016145;28;20060;-93
2022/09/01 08:12:57;;;;;;;8.57;1.70;;;18.00;99.90;;;;;;5016461;28;20045;-88
2022/09/01 08:15:24;;;;;;;3.53;1.77;;;18.10;99.90;;;;;;5000399;28;20133;-87
2022/09/01 08:17:50;;;;;;;3.00;1.60;;;18.20;99.90;;;;;;5000974;28;20096;-93
2022/09/01 08:20:15;;;;;;;3.40;1.15;;;18.40;99.90;;;;;;4999249;28;20045;-87
2022/09/01 08:22:41;;;;;;;2.78;1.63;;;18.50;99.90;;;;;;4982098;28;20073;-87
2022/09/01 08:25:08;;;;;;;5.15;1.38;;;18.60;99.90;;;;;;4999920;28;20046;-88
2022/09/01 08:27:37;;;;;;;2.42;1.50;;;18.70;99.90;;;;;;5001826;28;20077;-87
2022/09/01 08:30:06;;;;;;;2.55;1.30;;;18.90;99.90;;;;;;5016622;28;20058;-88
2022/09/01 08:32:36;;;;;;;3.08;1.30;;;19.00;99.90;;;;;;4998959;28;20049;-87
2022/09/01 08:35:03;;;;;;;5.57;1.47;;;19.10;99.90;;;;;;4981282;28;20049;-86
2022/09/01 08:37:30;;;;;;;4.15;1.48;;;19.30;99.90;;;;;;5014479;28;20050;-86
2022/09/01 08:39:56;;;;;;;1.90;1.30;;;19.50;99.90;;;;;;5015185;28;20129;-92
2022/09/01 08:42:43;;;;;;;3.45;1.40;;;19.60;99.90;;;;;;5014422;28;20192;-86
2022/09/01 08:45:19;;;;;;;3.35;1.25;;;19.80;99.90;;;;;;4997172;28;20395;-88
2022/09/01 08:47:46;;;;;;;13.63;1.98;;;20.10;99.90;;;;;;4999452;28;20495;-89
2022/09/01 08:50:13;;;;;;;4.78;1.58;;;20.30;99.90;;;;;;4982277;28;20139;-90
2022/09/01 08:52:44;;;;;;;3.30;1.05;;;20.70;99.90;;;;;;5013836;28;20522;-89
2022/09/01 08:55:30;;;;;;;4.90;1.27;;;21.40;99.90;;;;;;5014572;28;20038;-87
2022/09/01 08:57:58;;;;;;;5.50;1.30;;;22.30;99.90;;;;;;5013879;28;20053;-88
2022/09/01 09:00:29;;;;;;;4.22;1.35;;;23.30;93.90;;;;;;5013558;28;20515;-90
2022/09/01 09:03:09;;;;;;;3.47;1.10;;;24.00;82.00;;;;;;4996337;28;20386;-93
2022/09/01 09:06:03;;;;;;;3.20;1.03;;;24.70;73.90;;;;;;4980394;28;20129;-88
2022/09/01 09:08:52;;;;;;;2.40;1.00;;;25.40;75.40;;;;;;4979782;28;20303;-88
2022/09/01 09:11:35;;;;;;;3.65;0.90;;;26.20;69.00;;;;;;5013482;28;20121;-87
2022/09/01 09:14:13;;;;;;;4.05;1.08;;;26.60;63.20;;;;;;4996605;28;20447;-90
2022/09/01 09:16:42;;;;;;;3.40;0.90;;;26.90;62.70;;;;;;4980288;28;20057;-87
2022/09/01 09:19:16;;;;;;;2.20;0.70;;;27.10;61.70;;;;;;4996085;28;20443;-87
2022/09/01 09:21:47;;;;;;;2.08;0.90;;;27.30;60.00;;;;;;4996025;28;20133;-88
2022/09/01 09:24:51;;;;;;;1.77;0.70;;;27.60;59.10;;;;;;4980209;28;20107;-89
2022/09/01 09:27:25;;;;;;;3.83;0.80;;;27.80;57.90;;;;;;5013916;28;20046;-88
2022/09/01 09:30:00;;;;;;;2.70;0.80;;;28.00;57.20;;;;;;4980363;28;20057;-87
2022/09/01 09:32:54;;;;;;;2.20;0.70;;;28.30;56.10;;;;;;4980096;28;20415;-86
2022/09/01 09:35:40;;;;;;;3.40;0.80;;;28.70;53.20;;;;;;4980377;28;20137;-88
2022/09/01 09:38:17;;;;;;;2.05;0.82;;;29.20;54.90;;;;;;4996498;28;20068;-87
2022/09/01 09:41:05;;;;;;;3.38;1.02;;;29.60;51.70;;;;;;4980686;28;20050;-88
2022/09/01 09:44:11;;;;;;;1.83;0.68;;;29.90;52.30;;;;;;4980963;28;20042;-92
2022/09/01 09:46:41;;;;;;;4.38;0.80;;;30.30;51.40;;;;;;4971420;28;20058;-89
2022/09/01 09:49:12;;;;;;;;;;;30.70;49.80;;;;;;4985036;28;20046;-90
2022/09/01 09:51:42;;;;;;;2.83;0.60;;;31.60;51.20;;;;;;5019570;28;19925;-87
2022/09/01 09:54:12;;;;;;;2.22;0.80;;;32.00;49.00;;;;;;5001089;28;20137;-89
2022/09/01 09:56:40;;;;;;;2.22;0.90;;;32.30;46.80;;;;;;5000295;28;20499;-87
2022/09/01 09:59:28;;;;;;;2.50;0.77;;;32.30;45.80;;;;;;4999917;28;20058;-91
2022/09/01 10:01:58;;;;;;;2.13;1.00;;;32.40;45.60;;;;;;4999355;28;20431;-88
2022/09/01 10:04:50;;;;;;;;;;;32.70;45.10;;;;;;5018071;28;20045;-87
2022/09/01 10:07:36;;;;;;;3.22;0.70;;;33.10;44.60;;;;;;4981815;28;19965;-87
2022/09/01 10:10:07;;;;;;;1.83;0.63;;;32.80;43.60;;;;;;5003184;28;20084;-87
2022/09/01 10:12:33;;;;;;;1.05;0.55;;;32.30;44.20;;;;;;5037271;28;20049;-89
2022/09/01 10:15:07;;;;;;;0.82;0.65;;;31.90;44.70;;;;;;5036603;28;20057;-88
2022/09/01 10:17:38;;;;;;;3.60;0.98;;;31.40;44.60;;;;;;5037394;28;20522;-88
2022/09/01 10:20:06;;;;;;;;;;;30.90;45.50;;;;;;5021232;28;20411;-88
2022/09/01 10:22:35;;;;;;;2.55;0.80;;;30.70;45.60;;;;;;5003762;28;19921;-87
2022/09/01 10:25:01;;;;;;;2.42;0.70;;;30.40;46.20;;;;;;5019539;28;20049;-91
2022/09/01 10:27:31;;;;;;;0.93;0.68;;;30.50;46.90;;;;;;5019476;28;20045;-90
2022/09/01 10:30:02;;;;;;;1.95;0.77;;;30.80;46.80;;;;;;5019381;28;20061;-93
2022/09/01 10:32:48;;;;;;;1.80;0.73;;;31.10;45.70;;;;;;5036434;28;20164;-88
2022/09/01 10:35:22;;;;;;;1.67;0.70;;;31.20;45.10;;;;;;5019360;28;20053;-93
2022/09/01 10:37:50;;;;;;;2.63;0.70;;;31.20;45.20;;;;;;5019506;28;20123;-90
2022/09/01 10:40:28;;;;;;;1.65;0.70;;;31.80;44.10;;;;;;5018923;28;20052;-92
2022/09/01 10:43:20;;;;;;;2.15;0.68;;;32.30;42.60;;;;;;5003873;28;20132;-87
2022/09/01 10:45:47;;;;;;;1.88;0.70;;;31.40;43.40;;;;;;5003369;28;20096;-88
2022/09/01 10:48:22;;;;;;;2.33;0.88;;;31.40;43.80;;;;;;5037031;28;20056;-86
2022/09/01 10:51:12;;;;;;;0.60;0.50;;;32.00;43.10;;;;;;5036180;28;20396;-89
2022/09/01 10:53:43;;;;;;;3.42;0.60;;;32.70;42.30;;;;;;5001829;28;20049;-90
2022/09/01 10:56:46;;;;;;;2.78;0.60;;;33.30;41.60;;;;;;5018565;28;20087;-93
2022/09/01 10:59:21;;;;;;;3.47;0.73;;;33.00;40.10;;;;;;5037065;28;20046;-89
2022/09/01 11:01:47;;;;;;;3.33;0.85;;;31.50;41.60;;;;;;5039123;28;20088;-90
2022/09/01 11:04:12;;;;;;;2.33;0.57;;;30.60;42.90;;;;;;5005504;28;20053;-89
2022/09/01 11:06:41;;;;;;;1.52;0.70;;;30.80;43.00;;;;;;5022563;28;20045;-90
2022/09/01 11:09:24;;;;;;;2.13;0.60;;;31.40;42.50;;;;;;5004624;28;20411;-88
2022/09/01 11:12:16;;;;;;;2.13;0.63;;;31.90;42.70;;;;;;5038928;28;20084;-90
2022/09/01 11:14:54;;;;;;;2.90;0.55;;;32.00;42.90;;;;;;5021884;28;20132;-87
2022/09/01 11:17:27;;;;;;;1.58;0.70;;;31.90;41.60;;;;;;5005143;28;20103;-90
2022/09/01 11:20:09;;;;;;;3.53;0.90;;;31.10;41.80;;;;;;5038337;28;20058;-88
2022/09/01 11:22:56;;;;;;;3.92;0.80;;;30.20;41.90;;;;;;5018752;28;20128;-88
2022/09/01 11:25:47;;;;;;;1.00;0.52;;;28.90;43.80;;;;;;5045488;28;20455;-90
2022/09/01 11:28:15;;;;;;;1.58;0.70;;;28.80;44.50;;;;;;5018763;28;20482;-87
2022/09/01 11:31:08;;;;;;;0.77;0.50;;;28.80;44.20;;;;;;5005549;28;20059;-89
2022/09/01 11:34:02;;;;;;;0.88;0.50;;;28.10;45.20;;;;;;5019783;28;20045;-86
2022/09/01 11:36:34;;;;;;;4.18;0.75;;;28.40;46.70;;;;;;5017844;28;20053;-89
2022/09/01 11:39:18;;;;;;;3.13;0.60;;;28.40;45.30;;;;;;5017508;28;20057;-89
2022/09/01 11:42:04;;;;;;;5.78;0.75;;;27.50;45.70;;;;;;5000887;28;20041;-89
2022/09/01 11:44:48;;;;;;;1.70;0.65;;;27.20;47.30;;;;;;5017672;28;20048;-89
2022/09/01 11:47:26;;;;;;;1.08;0.65;;;26.70;47.10;;;;;;5002093;28;20046;-89
2022/09/01 11:49:56;;;;;;;3.10;0.70;;;25.90;48.00;;;;;;5034928;28;20442;-91
2022/09/01 11:52:26;;;;;;;1.70;0.60;;;25.10;49.50;;;;;;5017193;28;20483;-89
2022/09/01 11:54:53;;;;;;;2.60;0.60;;;24.50;50.40;;;;;;5017609;28;20572;-88
2022/09/01 11:57:28;;;;;;;2.20;0.50;;;24.90;51.00;;;;;;5017775;28;20060;-88
2022/09/01 11:59:57;;;;;;;1.15;0.55;;;26.20;50.10;;;;;;5016848;28;20490;-87
2022/09/01 12:02:32;;;;;;;0.57;0.50;;;27.30;47.90;;;;;;5016867;28;20077;-87
2022/09/01 12:04:59;;;;;;;0.85;0.60;;;28.30;47.30;;;;;;5017489;28;20045;-88
2022/09/01 12:07:43;;;;;;;1.10;0.43;;;29.40;45.40;;;;;;5000587;28;20183;-88
2022/09/01 12:10:17;;;;;;;3.78;0.60;;;30.10;44.00;;;;;;5016672;28;20053;-87
2022/09/01 12:12:44;;;;;;;1.25;0.50;;;29.70;43.40;;;;;;5034216;28;20147;-89
2022/09/01 12:15:24;;;;;;;2.53;0.60;;;28.40;44.50;;;;;;5017583;28;20521;-87
2022/09/01 12:17:51;;;;;;;1.70;0.50;;;27.10;45.50;;;;;;5000524;28;20413;-88
2022/09/01 12:20:24;;;;;;;1.05;0.45;;;26.10;48.30;;;;;;5034562;28;20048;-87
2022/09/01 12:22:50;;;;;;;1.63;0.63;;;25.60;50.60;;;;;;5034217;28;20484;-86
2022/09/01 12:25:22;;;;;;;1.95;0.80;;;26.00;49.90;;;;;;5000081;28;20132;-87
2022/09/01 12:27:48;;;;;;;1.88;0.70;;;25.90;49.00;;;;;;5034866;28;20057;-87
2022/09/01 12:30:14;;;;;;;3.15;0.70;;;25.60;49.20;;;;;;5017787;28;20052;-87
2022/09/01 12:32:41;;;;;;;1.23;0.60;;;25.20;49.10;;;;;;5018927;28;20419;-88
2022/09/01 12:35:19;;;;;;;3.40;0.93;;;25.20;49.20;;;;;;5001300;28;20107;-89
2022/09/01 12:37:45;;;;;;;3.30;0.60;;;25.10;49.20;;;;;;5034059;28;20049;-87
2022/09/01 12:40:31;;;;;;;1.73;0.60;;;24.80;49.70;;;;;;5000408;28;20057;-88
2022/09/01 12:42:56;;;;;;;3.88;0.70;;;24.50;50.00;;;;;;5017798;28;20049;-86
2022/09/01 12:45:43;;;;;;;1.48;0.60;;;24.50;50.50;;;;;;5001464;28;20056;-87
2022/09/01 12:48:30;;;;;;;1.63;0.90;;;24.90;50.60;;;;;;5034568;28;20049;-90
2022/09/01 12:51:16;;;;;;;2.42;0.70;;;25.00;50.50;;;;;;5001015;28;20053;-93
2022/09/01 12:53:55;;;;;;;2.15;0.70;;;24.90;50.10;;;;;;5032731;28;20048;-89
2022/09/01 12:56:28;;;;;;;1.30;0.50;;;24.50;51.10;;;;;;5034134;28;20060;-88
2022/09/01 12:59:08;;;;;;;3.65;0.73;;;24.30;51.50;;;;;;5016088;28;20057;-85
2022/09/01 13:01:36;;;;;;;4.35;0.70;;;24.30;51.20;;;;;;5017061;28;20081;-87
2022/09/01 13:04:21;;;;;;;2.45;0.70;;;24.40;51.00;;;;;;5033756;28;20053;-88
2022/09/01 13:06:48;;;;;;;2.13;0.60;;;24.50;50.80;;;;;;5000064;28;20046;-91
2022/09/01 13:09:14;;;;;;;2.90;0.82;;;24.60;50.30;;;;;;5015984;28;20057;-89
2022/09/01 13:11:41;;;;;;;3.08;0.70;;;24.40;50.40;;;;;;5016360;28;20072;-87
2022/09/01 13:14:07;;;;;;;3.40;0.68;;;24.20;50.50;;;;;;5035114;28;20088;-87